sensor_id;sensor_type;location;lat;lon;timestamp;P1;durP1;ratioP1;P2;durP2;ratioP2
13443;SDS011;6794;59.218;18.218;2023-11-21T00:01:04;6.40;;;3.43;;
13443;SDS011;6794;59.218;18.218;2023-11-21T00:03:33;6.47;;;3.63;;
13443;SDS011;6794;59.218;18.218;2023-11-21T00:05:59;5.60;;;3.90;;
13443;SDS011;6794;59.218;18.218;2023-11-21T00:08:25;4.87;;;3.70;;
13443;SDS011;6794;59.218;18.218;2023-11-21T00:10:52;5.90;;;3.80;;
13443;SDS011;6794;59.218;18.218;2023-11-21T00:13:19;12.10;;;4.67;;
13443;SDS011;6794;59.218;18.218;2023-11-21T00:15:45;8.93;;;5.03;;
13443;SDS011;6794;59.218;18.218;2023-11-21T00:18:11;8.53;;;5.43;;
13443;SDS011;6794;59.218;18.218;2023-11-21T00:20:39;8.52;;;5.55;;
13443;SDS011;6794;59.218;18.218;2023-11-21T00:23:05;11.00;;;5.50;;
13443;SDS011;6794;59.218;18.218;2023-11-21T00:25:31;8.97;;;5.80;;
13443;SDS011;6794;59.218;18.218;2023-11-21T00:27:57;10.80;;;5.30;;
13443;SDS011;6794;59.218;18.218;2023-11-21T00:30:23;8.00;;;5.27;;
13443;SDS011;6794;59.218;18.218;2023-11-21T00:32:49;11.60;;;5.83;;
13443;SDS011;6794;59.218;18.218;2023-11-21T00:35:15;10.53;;;5.93;;
13443;SDS011;6794;59.218;18.218;2023-11-21T00:37:41;14.10;;;5.93;;
13443;SDS011;6794;59.218;18.218;2023-11-21T00:40:07;16.70;;;6.47;;
13443;SDS011;6794;59.218;18.218;2023-11-21T00:42:34;14.63;;;7.83;;
13443;SDS011;6794;59.218;18.218;2023-11-21T00:45:00;11.23;;;6.33;;
13443;SDS011;6794;59.218;18.218;2023-11-21T00:47:27;11.50;;;6.53;;
13443;SDS011;6794;59.218;18.218;2023-11-21T00:49:53;17.73;;;9.65;;
13443;SDS011;6794;59.218;18.218;2023-11-21T00:52:19;14.53;;;8.10;;
13443;SDS011;6794;59.218;18.218;2023-11-21T00:54:45;18.13;;;9.10;;
13443;SDS011;6794;59.218;18.218;2023-11-21T00:57:13;15.27;;;8.53;;
13443;SDS011;6794;59.218;18.218;2023-11-21T00:59:39;16.43;;;7.90;;
13443;SDS011;6794;59.218;18.218;2023-11-21T01:02:05;18.00;;;8.60;;
13443;SDS011;6794;59.218;18.218;2023-11-21T01:04:31;14.50;;;7.40;;
13443;SDS011;6794;59.218;18.218;2023-11-21T01:06:57;13.57;;;7.87;;
13443;SDS011;6794;59.218;18.218;2023-11-21T01:09:23;14.87;;;7.20;;
13443;SDS011;6794;59.218;18.218;2023-11-21T01:11:50;14.67;;;7.80;;
13443;SDS011;6794;59.218;18.218;2023-11-21T01:14:17;12.83;;;7.50;;
13443;SDS011;6794;59.218;18.218;2023-11-21T01:16:43;12.83;;;7.60;;
13443;SDS011;6794;59.218;18.218;2023-11-21T01:19:09;17.55;;;10.13;;
13443;SDS011;6794;59.218;18.218;2023-11-21T01:21:35;14.87;;;8.23;;
13443;SDS011;6794;59.218;18.218;2023-11-21T01:24:01;9.87;;;6.07;;
13443;SDS011;6794;59.218;18.218;2023-11-21T01:26:27;11.23;;;7.00;;
13443;SDS011;6794;59.218;18.218;2023-11-21T01:28:53;11.87;;;5.73;;
13443;SDS011;6794;59.218;18.218;2023-11-21T01:31:19;10.47;;;6.00;;
13443;SDS011;6794;59.218;18.218;2023-11-21T01:33:45;7.60;;;4.43;;
13443;SDS011;6794;59.218;18.218;2023-11-21T01:36:11;6.50;;;3.97;;
13443;SDS011;6794;59.218;18.218;2023-11-21T01:38:37;5.43;;;3.97;;
13443;SDS011;6794;59.218;18.218;2023-11-21T01:41:04;6.13;;;3.43;;
13443;SDS011;6794;59.218;18.218;2023-11-21T01:43:31;7.47;;;4.03;;
13443;SDS011;6794;59.218;18.218;2023-11-21T01:45:57;8.35;;;4.50;;
13443;SDS011;6794;59.218;18.218;2023-11-21T01:48:24;5.93;;;3.53;;
13443;SDS011;6794;59.218;18.218;2023-11-21T01:50:50;5.93;;;4.07;;
13443;SDS011;6794;59.218;18.218;2023-11-21T01:53:17;4.90;;;3.03;;
13443;SDS011;6794;59.218;18.218;2023-11-21T01:55:43;5.93;;;3.57;;
13443;SDS011;6794;59.218;18.218;2023-11-21T01:58:10;4.50;;;3.00;;
13443;SDS011;6794;59.218;18.218;2023-11-21T02:00:37;3.83;;;2.87;;
13443;SDS011;6794;59.218;18.218;2023-11-21T02:03:03;4.73;;;3.43;;
13443;SDS011;6794;59.218;18.218;2023-11-21T02:05:30;3.57;;;2.70;;
13443;SDS011;6794;59.218;18.218;2023-11-21T02:07:56;4.67;;;2.97;;
13443;SDS011;6794;59.218;18.218;2023-11-21T02:10:22;5.07;;;2.77;;
13443;SDS011;6794;59.218;18.218;2023-11-21T02:12:49;3.93;;;2.70;;
13443;SDS011;6794;59.218;18.218;2023-11-21T02:15:18;7.45;;;4.90;;
13443;SDS011;6794;59.218;18.218;2023-11-21T02:17:48;5.00;;;3.17;;
13443;SDS011;6794;59.218;18.218;2023-11-21T02:20:19;4.53;;;3.20;;
13443;SDS011;6794;59.218;18.218;2023-11-21T02:25:32;4.37;;;3.33;;
13443;SDS011;6794;59.218;18.218;2023-11-21T02:28:00;4.03;;;2.80;;
13443;SDS011;6794;59.218;18.218;2023-11-21T02:30:26;3.37;;;2.83;;
13443;SDS011;6794;59.218;18.218;2023-11-21T02:32:58;5.77;;;2.83;;
13443;SDS011;6794;59.218;18.218;2023-11-21T02:35:25;5.00;;;2.87;;
13443;SDS011;6794;59.218;18.218;2023-11-21T02:37:51;4.47;;;2.87;;
13443;SDS011;6794;59.218;18.218;2023-11-21T02:40:17;4.47;;;3.17;;
13443;SDS011;6794;59.218;18.218;2023-11-21T02:42:45;4.63;;;3.10;;
13443;SDS011;6794;59.218;18.218;2023-11-21T02:45:12;4.63;;;3.10;;
13443;SDS011;6794;59.218;18.218;2023-11-21T02:47:39;3.37;;;2.63;;
13443;SDS011;6794;59.218;18.218;2023-11-21T02:50:05;4.20;;;2.90;;
13443;SDS011;6794;59.218;18.218;2023-11-21T02:52:34;5.30;;;3.07;;
13443;SDS011;6794;59.218;18.218;2023-11-21T02:55:00;4.90;;;2.93;;
13443;SDS011;6794;59.218;18.218;2023-11-21T02:57:26;4.53;;;2.90;;
13443;SDS011;6794;59.218;18.218;2023-11-21T02:59:52;3.83;;;2.77;;
13443;SDS011;6794;59.218;18.218;2023-11-21T03:02:18;4.00;;;2.73;;
13443;SDS011;6794;59.218;18.218;2023-11-21T03:04:44;5.03;;;3.50;;
13443;SDS011;6794;59.218;18.218;2023-11-21T03:07:10;5.77;;;2.93;;
13443;SDS011;6794;59.218;18.218;2023-11-21T03:09:37;5.67;;;2.90;;
13443;SDS011;6794;59.218;18.218;2023-11-21T03:12:03;4.97;;;3.17;;
13443;SDS011;6794;59.218;18.218;2023-11-21T03:14:29;6.10;;;2.77;;
13443;SDS011;6794;59.218;18.218;2023-11-21T03:16:55;4.73;;;3.03;;
13443;SDS011;6794;59.218;18.218;2023-11-21T03:19:21;3.77;;;2.87;;
13443;SDS011;6794;59.218;18.218;2023-11-21T03:21:47;5.63;;;3.20;;
13443;SDS011;6794;59.218;18.218;2023-11-21T03:24:13;5.00;;;3.00;;
13443;SDS011;6794;59.218;18.218;2023-11-21T03:26:44;4.97;;;3.00;;
13443;SDS011;6794;59.218;18.218;2023-11-21T03:29:10;6.43;;;3.70;;
13443;SDS011;6794;59.218;18.218;2023-11-21T03:31:36;5.30;;;2.97;;
13443;SDS011;6794;59.218;18.218;2023-11-21T03:34:02;3.80;;;2.90;;
13443;SDS011;6794;59.218;18.218;2023-11-21T03:36:28;4.67;;;2.97;;
13443;SDS011;6794;59.218;18.218;2023-11-21T03:38:54;5.93;;;3.72;;
13443;SDS011;6794;59.218;18.218;2023-11-21T03:41:20;6.43;;;3.93;;
13443;SDS011;6794;59.218;18.218;2023-11-21T03:43:46;5.53;;;3.00;;
13443;SDS011;6794;59.218;18.218;2023-11-21T03:46:12;5.27;;;3.30;;
13443;SDS011;6794;59.218;18.218;2023-11-21T03:48:39;5.53;;;3.20;;
13443;SDS011;6794;59.218;18.218;2023-11-21T03:51:05;4.50;;;3.20;;
13443;SDS011;6794;59.218;18.218;2023-11-21T03:53:31;4.43;;;2.93;;
13443;SDS011;6794;59.218;18.218;2023-11-21T03:55:58;6.10;;;3.43;;
13443;SDS011;6794;59.218;18.218;2023-11-21T03:58:24;5.57;;;3.03;;
13443;SDS011;6794;59.218;18.218;2023-11-21T04:00:50;5.40;;;3.27;;
13443;SDS011;6794;59.218;18.218;2023-11-21T04:03:16;4.53;;;3.50;;
13443;SDS011;6794;59.218;18.218;2023-11-21T04:05:42;5.97;;;3.23;;
13443;SDS011;6794;59.218;18.218;2023-11-21T04:08:08;6.53;;;3.30;;
13443;SDS011;6794;59.218;18.218;2023-11-21T04:10:34;6.43;;;3.50;;
13443;SDS011;6794;59.218;18.218;2023-11-21T04:13:00;5.47;;;3.33;;
13443;SDS011;6794;59.218;18.218;2023-11-21T04:15:26;6.30;;;3.50;;
13443;SDS011;6794;59.218;18.218;2023-11-21T04:17:52;5.07;;;3.47;;
13443;SDS011;6794;59.218;18.218;2023-11-21T04:20:18;4.67;;;3.17;;
13443;SDS011;6794;59.218;18.218;2023-11-21T04:22:45;4.63;;;2.93;;
13443;SDS011;6794;59.218;18.218;2023-11-21T04:25:11;3.93;;;2.80;;
13443;SDS011;6794;59.218;18.218;2023-11-21T04:27:38;4.90;;;3.13;;
13443;SDS011;6794;59.218;18.218;2023-11-21T04:30:04;5.67;;;3.73;;
13443;SDS011;6794;59.218;18.218;2023-11-21T04:32:31;4.60;;;3.27;;
13443;SDS011;6794;59.218;18.218;2023-11-21T04:34:57;6.20;;;3.30;;
13443;SDS011;6794;59.218;18.218;2023-11-21T04:37:23;5.87;;;3.70;;
13443;SDS011;6794;59.218;18.218;2023-11-21T04:39:49;6.73;;;3.63;;
13443;SDS011;6794;59.218;18.218;2023-11-21T04:42:15;4.77;;;3.53;;
13443;SDS011;6794;59.218;18.218;2023-11-21T04:44:41;5.00;;;2.97;;
13443;SDS011;6794;59.218;18.218;2023-11-21T04:47:09;4.50;;;3.07;;
13443;SDS011;6794;59.218;18.218;2023-11-21T04:49:35;6.70;;;3.37;;
13443;SDS011;6794;59.218;18.218;2023-11-21T04:52:01;4.77;;;3.33;;
13443;SDS011;6794;59.218;18.218;2023-11-21T04:54:28;6.40;;;3.60;;
13443;SDS011;6794;59.218;18.218;2023-11-21T04:56:55;4.77;;;3.70;;
13443;SDS011;6794;59.218;18.218;2023-11-21T04:59:21;4.27;;;3.30;;
13443;SDS011;6794;59.218;18.218;2023-11-21T05:01:52;5.63;;;2.87;;
13443;SDS011;6794;59.218;18.218;2023-11-21T05:04:18;4.20;;;3.07;;
13443;SDS011;6794;59.218;18.218;2023-11-21T05:06:44;5.60;;;3.97;;
13443;SDS011;6794;59.218;18.218;2023-11-21T05:09:11;7.33;;;3.37;;
13443;SDS011;6794;59.218;18.218;2023-11-21T05:11:37;5.20;;;3.43;;
13443;SDS011;6794;59.218;18.218;2023-11-21T05:14:05;4.90;;;3.00;;
13443;SDS011;6794;59.218;18.218;2023-11-21T05:16:32;6.27;;;3.30;;
13443;SDS011;6794;59.218;18.218;2023-11-21T05:18:59;4.60;;;3.00;;
13443;SDS011;6794;59.218;18.218;2023-11-21T05:21:26;6.73;;;4.13;;
13443;SDS011;6794;59.218;18.218;2023-11-21T05:23:52;7.50;;;4.30;;
13443;SDS011;6794;59.218;18.218;2023-11-21T05:26:18;6.00;;;4.20;;
13443;SDS011;6794;59.218;18.218;2023-11-21T05:28:45;8.33;;;4.10;;
13443;SDS011;6794;59.218;18.218;2023-11-21T05:31:11;8.97;;;4.53;;
13443;SDS011;6794;59.218;18.218;2023-11-21T05:33:37;7.40;;;4.20;;
13443;SDS011;6794;59.218;18.218;2023-11-21T05:36:03;7.60;;;5.00;;
13443;SDS011;6794;59.218;18.218;2023-11-21T05:38:29;8.43;;;4.43;;
13443;SDS011;6794;59.218;18.218;2023-11-21T05:40:55;7.47;;;4.53;;
13443;SDS011;6794;59.218;18.218;2023-11-21T05:43:23;8.80;;;4.63;;
13443;SDS011;6794;59.218;18.218;2023-11-21T05:45:49;8.07;;;4.73;;
13443;SDS011;6794;59.218;18.218;2023-11-21T05:48:15;9.60;;;4.73;;
13443;SDS011;6794;59.218;18.218;2023-11-21T05:50:41;6.10;;;4.43;;
13443;SDS011;6794;59.218;18.218;2023-11-21T05:53:07;7.27;;;4.30;;
13443;SDS011;6794;59.218;18.218;2023-11-21T05:55:36;10.10;;;4.67;;
13443;SDS011;6794;59.218;18.218;2023-11-21T05:58:04;6.50;;;3.70;;
13443;SDS011;6794;59.218;18.218;2023-11-21T06:00:30;9.10;;;5.23;;
13443;SDS011;6794;59.218;18.218;2023-11-21T06:02:57;7.73;;;4.27;;
13443;SDS011;6794;59.218;18.218;2023-11-21T06:05:23;11.35;;;6.38;;
13443;SDS011;6794;59.218;18.218;2023-11-21T06:07:50;8.13;;;4.50;;
13443;SDS011;6794;59.218;18.218;2023-11-21T06:10:17;9.03;;;4.90;;
13443;SDS011;6794;59.218;18.218;2023-11-21T06:12:44;7.00;;;4.00;;
13443;SDS011;6794;59.218;18.218;2023-11-21T06:15:10;7.53;;;3.93;;
13443;SDS011;6794;59.218;18.218;2023-11-21T06:17:40;9.93;;;3.97;;
13443;SDS011;6794;59.218;18.218;2023-11-21T06:20:07;5.90;;;3.67;;
13443;SDS011;6794;59.218;18.218;2023-11-21T06:22:39;5.07;;;3.20;;
13443;SDS011;6794;59.218;18.218;2023-11-21T06:25:05;5.23;;;3.87;;
13443;SDS011;6794;59.218;18.218;2023-11-21T06:27:32;6.07;;;3.20;;
13443;SDS011;6794;59.218;18.218;2023-11-21T06:29:59;5.43;;;3.60;;
13443;SDS011;6794;59.218;18.218;2023-11-21T06:32:25;5.60;;;3.67;;
13443;SDS011;6794;59.218;18.218;2023-11-21T06:34:51;7.72;;;6.15;;
13443;SDS011;6794;59.218;18.218;2023-11-21T06:37:20;6.17;;;3.67;;
13443;SDS011;6794;59.218;18.218;2023-11-21T06:39:48;4.83;;;3.33;;
13443;SDS011;6794;59.218;18.218;2023-11-21T06:42:17;4.57;;;3.27;;
13443;SDS011;6794;59.218;18.218;2023-11-21T06:44:44;4.07;;;3.07;;
13443;SDS011;6794;59.218;18.218;2023-11-21T06:47:10;5.37;;;3.60;;
13443;SDS011;6794;59.218;18.218;2023-11-21T06:49:36;4.43;;;2.70;;
13443;SDS011;6794;59.218;18.218;2023-11-21T06:52:03;5.10;;;3.23;;
13443;SDS011;6794;59.218;18.218;2023-11-21T06:54:30;6.33;;;3.73;;
13443;SDS011;6794;59.218;18.218;2023-11-21T06:56:56;7.00;;;3.40;;
13443;SDS011;6794;59.218;18.218;2023-11-21T06:59:23;5.17;;;3.73;;
13443;SDS011;6794;59.218;18.218;2023-11-21T07:01:49;6.40;;;3.43;;
13443;SDS011;6794;59.218;18.218;2023-11-21T07:04:15;6.07;;;3.57;;
13443;SDS011;6794;59.218;18.218;2023-11-21T07:06:41;6.63;;;3.57;;
13443;SDS011;6794;59.218;18.218;2023-11-21T07:09:08;5.77;;;3.43;;
13443;SDS011;6794;59.218;18.218;2023-11-21T07:11:36;4.07;;;2.87;;
13443;SDS011;6794;59.218;18.218;2023-11-21T07:14:03;5.30;;;3.23;;
13443;SDS011;6794;59.218;18.218;2023-11-21T07:16:34;9.23;;;4.13;;
13443;SDS011;6794;59.218;18.218;2023-11-21T07:19:02;7.27;;;4.00;;
13443;SDS011;6794;59.218;18.218;2023-11-21T07:21:31;5.10;;;3.57;;
13443;SDS011;6794;59.218;18.218;2023-11-21T07:23:57;7.10;;;4.20;;
13443;SDS011;6794;59.218;18.218;2023-11-21T07:26:23;4.90;;;3.47;;
13443;SDS011;6794;59.218;18.218;2023-11-21T07:28:50;8.93;;;4.60;;
13443;SDS011;6794;59.218;18.218;2023-11-21T07:31:16;5.60;;;3.40;;
13443;SDS011;6794;59.218;18.218;2023-11-21T07:33:42;7.95;;;4.40;;
13443;SDS011;6794;59.218;18.218;2023-11-21T07:36:08;4.97;;;3.70;;
13443;SDS011;6794;59.218;18.218;2023-11-21T07:38:35;5.97;;;3.53;;
13443;SDS011;6794;59.218;18.218;2023-11-21T07:41:01;4.87;;;3.40;;
13443;SDS011;6794;59.218;18.218;2023-11-21T07:43:27;5.60;;;3.97;;
13443;SDS011;6794;59.218;18.218;2023-11-21T07:45:59;6.47;;;3.83;;
13443;SDS011;6794;59.218;18.218;2023-11-21T07:48:26;4.63;;;3.40;;
13443;SDS011;6794;59.218;18.218;2023-11-21T07:50:52;7.93;;;4.93;;
13443;SDS011;6794;59.218;18.218;2023-11-21T07:53:18;5.43;;;3.53;;
13443;SDS011;6794;59.218;18.218;2023-11-21T07:55:44;8.30;;;4.67;;
13443;SDS011;6794;59.218;18.218;2023-11-21T07:58:12;8.53;;;4.37;;
13443;SDS011;6794;59.218;18.218;2023-11-21T08:00:38;6.30;;;4.03;;
13443;SDS011;6794;59.218;18.218;2023-11-21T08:03:04;9.10;;;5.47;;
13443;SDS011;6794;59.218;18.218;2023-11-21T08:05:30;6.20;;;4.07;;
13443;SDS011;6794;59.218;18.218;2023-11-21T08:07:57;7.47;;;3.70;;
13443;SDS011;6794;59.218;18.218;2023-11-21T08:10:23;6.70;;;3.93;;
13443;SDS011;6794;59.218;18.218;2023-11-21T08:12:50;6.03;;;3.60;;
13443;SDS011;6794;59.218;18.218;2023-11-21T08:15:16;5.03;;;3.53;;
13443;SDS011;6794;59.218;18.218;2023-11-21T08:17:42;5.07;;;3.37;;
13443;SDS011;6794;59.218;18.218;2023-11-21T08:20:08;5.77;;;3.17;;
13443;SDS011;6794;59.218;18.218;2023-11-21T08:22:35;10.63;;;4.03;;
13443;SDS011;6794;59.218;18.218;2023-11-21T08:25:02;5.57;;;3.60;;
13443;SDS011;6794;59.218;18.218;2023-11-21T08:27:29;4.87;;;2.97;;
13443;SDS011;6794;59.218;18.218;2023-11-21T08:29:55;3.60;;;2.80;;
13443;SDS011;6794;59.218;18.218;2023-11-21T08:32:22;5.20;;;4.00;;
13443;SDS011;6794;59.218;18.218;2023-11-21T08:34:48;6.83;;;4.00;;
13443;SDS011;6794;59.218;18.218;2023-11-21T08:37:17;3.73;;;3.00;;
13443;SDS011;6794;59.218;18.218;2023-11-21T08:39:47;3.93;;;2.83;;
13443;SDS011;6794;59.218;18.218;2023-11-21T08:42:17;5.20;;;3.13;;
13443;SDS011;6794;59.218;18.218;2023-11-21T08:44:44;3.10;;;2.50;;
13443;SDS011;6794;59.218;18.218;2023-11-21T08:47:10;3.43;;;2.60;;
13443;SDS011;6794;59.218;18.218;2023-11-21T08:49:36;4.67;;;3.20;;
13443;SDS011;6794;59.218;18.218;2023-11-21T08:52:02;4.17;;;2.43;;
13443;SDS011;6794;59.218;18.218;2023-11-21T08:54:30;4.97;;;3.37;;
13443;SDS011;6794;59.218;18.218;2023-11-21T08:56:56;3.23;;;2.30;;
13443;SDS011;6794;59.218;18.218;2023-11-21T08:59:25;3.80;;;2.10;;
13443;SDS011;6794;59.218;18.218;2023-11-21T09:01:51;4.22;;;3.35;;
13443;SDS011;6794;59.218;18.218;2023-11-21T09:04:17;3.03;;;2.50;;
13443;SDS011;6794;59.218;18.218;2023-11-21T09:06:43;4.03;;;2.10;;
13443;SDS011;6794;59.218;18.218;2023-11-21T09:09:09;1.57;;;1.43;;
13443;SDS011;6794;59.218;18.218;2023-11-21T09:11:36;2.03;;;1.43;;
13443;SDS011;6794;59.218;18.218;2023-11-21T09:14:02;3.70;;;1.70;;
13443;SDS011;6794;59.218;18.218;2023-11-21T09:16:29;4.37;;;2.33;;
13443;SDS011;6794;59.218;18.218;2023-11-21T09:18:55;2.97;;;2.30;;
13443;SDS011;6794;59.218;18.218;2023-11-21T09:21:21;2.60;;;2.00;;
13443;SDS011;6794;59.218;18.218;2023-11-21T09:23:48;1.87;;;1.70;;
13443;SDS011;6794;59.218;18.218;2023-11-21T09:26:14;3.43;;;1.73;;
13443;SDS011;6794;59.218;18.218;2023-11-21T09:28:41;1.85;;;1.70;;
13443;SDS011;6794;59.218;18.218;2023-11-21T09:31:11;2.03;;;1.43;;
13443;SDS011;6794;59.218;18.218;2023-11-21T09:33:37;1.63;;;1.53;;
13443;SDS011;6794;59.218;18.218;2023-11-21T09:36:04;3.13;;;1.60;;
13443;SDS011;6794;59.218;18.218;2023-11-21T09:38:30;1.90;;;1.70;;
13443;SDS011;6794;59.218;18.218;2023-11-21T09:40:56;1.70;;;1.50;;
13443;SDS011;6794;59.218;18.218;2023-11-21T09:43:23;1.97;;;1.50;;
13443;SDS011;6794;59.218;18.218;2023-11-21T09:45:56;2.07;;;1.70;;
13443;SDS011;6794;59.218;18.218;2023-11-21T09:48:25;3.20;;;1.60;;
13443;SDS011;6794;59.218;18.218;2023-11-21T09:50:52;2.40;;;1.90;;
13443;SDS011;6794;59.218;18.218;2023-11-21T09:53:20;1.87;;;1.30;;
13443;SDS011;6794;59.218;18.218;2023-11-21T09:55:47;1.50;;;1.40;;
13443;SDS011;6794;59.218;18.218;2023-11-21T09:58:15;2.73;;;1.70;;
13443;SDS011;6794;59.218;18.218;2023-11-21T10:00:42;2.00;;;1.50;;
13443;SDS011;6794;59.218;18.218;2023-11-21T10:03:08;2.30;;;1.57;;
13443;SDS011;6794;59.218;18.218;2023-11-21T10:05:35;1.77;;;1.48;;
13443;SDS011;6794;59.218;18.218;2023-11-21T10:08:02;1.77;;;1.33;;
13443;SDS011;6794;59.218;18.218;2023-11-21T10:10:31;2.07;;;1.60;;
13443;SDS011;6794;59.218;18.218;2023-11-21T10:13:00;1.67;;;1.30;;
13443;SDS011;6794;59.218;18.218;2023-11-21T10:15:27;2.00;;;1.63;;
13443;SDS011;6794;59.218;18.218;2023-11-21T10:17:55;2.53;;;1.77;;
13443;SDS011;6794;59.218;18.218;2023-11-21T10:20:22;2.73;;;2.30;;
13443;SDS011;6794;59.218;18.218;2023-11-21T10:22:49;3.70;;;2.10;;
13443;SDS011;6794;59.218;18.218;2023-11-21T10:25:15;2.30;;;1.80;;
13443;SDS011;6794;59.218;18.218;2023-11-21T10:27:43;2.93;;;1.80;;
13443;SDS011;6794;59.218;18.218;2023-11-21T10:30:12;1.60;;;1.50;;
13443;SDS011;6794;59.218;18.218;2023-11-21T10:32:38;1.97;;;1.80;;
13443;SDS011;6794;59.218;18.218;2023-11-21T10:35:06;2.40;;;1.60;;
13443;SDS011;6794;59.218;18.218;2023-11-21T10:37:35;2.30;;;2.00;;
13443;SDS011;6794;59.218;18.218;2023-11-21T10:40:05;2.70;;;1.80;;
13443;SDS011;6794;59.218;18.218;2023-11-21T10:42:32;2.90;;;2.47;;
13443;SDS011;6794;59.218;18.218;2023-11-21T10:44:58;3.70;;;2.80;;
13443;SDS011;6794;59.218;18.218;2023-11-21T10:47:24;2.60;;;2.07;;
13443;SDS011;6794;59.218;18.218;2023-11-21T10:49:51;6.40;;;2.63;;
13443;SDS011;6794;59.218;18.218;2023-11-21T10:52:20;3.67;;;2.67;;
13443;SDS011;6794;59.218;18.218;2023-11-21T10:54:46;3.47;;;1.90;;
13443;SDS011;6794;59.218;18.218;2023-11-21T10:57:13;2.23;;;2.00;;
13443;SDS011;6794;59.218;18.218;2023-11-21T10:59:41;3.17;;;2.07;;
13443;SDS011;6794;59.218;18.218;2023-11-21T11:02:30;2.50;;;2.30;;
13443;SDS011;6794;59.218;18.218;2023-11-21T11:04:58;2.03;;;1.60;;
13443;SDS011;6794;59.218;18.218;2023-11-21T11:07:26;2.80;;;2.58;;
13443;SDS011;6794;59.218;18.218;2023-11-21T11:09:57;2.43;;;2.23;;
13443;SDS011;6794;59.218;18.218;2023-11-21T11:12:25;2.13;;;1.93;;
13443;SDS011;6794;59.218;18.218;2023-11-21T11:14:51;2.20;;;1.80;;
13443;SDS011;6794;59.218;18.218;2023-11-21T11:17:18;3.23;;;2.10;;
13443;SDS011;6794;59.218;18.218;2023-11-21T11:19:46;2.33;;;2.13;;
13443;SDS011;6794;59.218;18.218;2023-11-21T11:30:03;3.60;;;2.07;;
13443;SDS011;6794;59.218;18.218;2023-11-21T11:38:02;4.00;;;1.53;;
13443;SDS011;6794;59.218;18.218;2023-11-21T11:40:41;2.20;;;2.00;;
13443;SDS011;6794;59.218;18.218;2023-11-21T11:43:07;2.83;;;2.00;;
13443;SDS011;6794;59.218;18.218;2023-11-21T11:45:34;2.70;;;1.93;;
13443;SDS011;6794;59.218;18.218;2023-11-21T11:48:01;3.50;;;1.73;;
13443;SDS011;6794;59.218;18.218;2023-11-21T11:50:28;2.80;;;1.80;;
13443;SDS011;6794;59.218;18.218;2023-11-21T11:52:55;3.67;;;1.90;;
13443;SDS011;6794;59.218;18.218;2023-11-21T11:55:22;2.90;;;2.30;;
13443;SDS011;6794;59.218;18.218;2023-11-21T11:57:50;2.67;;;1.80;;
13443;SDS011;6794;59.218;18.218;2023-11-21T12:00:22;2.37;;;1.90;;
13443;SDS011;6794;59.218;18.218;2023-11-21T12:02:52;2.67;;;2.13;;
13443;SDS011;6794;59.218;18.218;2023-11-21T12:05:19;2.87;;;2.00;;
13443;SDS011;6794;59.218;18.218;2023-11-21T12:07:46;2.53;;;1.70;;
13443;SDS011;6794;59.218;18.218;2023-11-21T12:10:13;2.93;;;2.03;;
13443;SDS011;6794;59.218;18.218;2023-11-21T12:12:49;2.30;;;1.70;;
13443;SDS011;6794;59.218;18.218;2023-11-21T12:15:15;3.77;;;1.70;;
13443;SDS011;6794;59.218;18.218;2023-11-21T12:17:42;3.40;;;1.67;;
13443;SDS011;6794;59.218;18.218;2023-11-21T12:20:09;2.63;;;2.00;;
13443;SDS011;6794;59.218;18.218;2023-11-21T12:22:48;1.80;;;1.70;;
13443;SDS011;6794;59.218;18.218;2023-11-21T12:25:15;1.87;;;1.53;;
13443;SDS011;6794;59.218;18.218;2023-11-21T12:27:43;1.77;;;1.40;;
13443;SDS011;6794;59.218;18.218;2023-11-21T12:30:11;2.30;;;1.50;;
13443;SDS011;6794;59.218;18.218;2023-11-21T12:32:39;1.60;;;1.50;;
13443;SDS011;6794;59.218;18.218;2023-11-21T12:35:06;3.03;;;1.60;;
13443;SDS011;6794;59.218;18.218;2023-11-21T12:37:33;2.47;;;1.27;;
13443;SDS011;6794;59.218;18.218;2023-11-21T12:39:59;3.77;;;1.37;;
13443;SDS011;6794;59.218;18.218;2023-11-21T12:42:25;1.63;;;1.47;;
13443;SDS011;6794;59.218;18.218;2023-11-21T12:48:03;2.60;;;1.50;;
13443;SDS011;6794;59.218;18.218;2023-11-21T12:50:32;1.77;;;1.30;;
13443;SDS011;6794;59.218;18.218;2023-11-21T12:53:02;1.60;;;1.50;;
13443;SDS011;6794;59.218;18.218;2023-11-21T12:55:30;1.60;;;1.33;;
13443;SDS011;6794;59.218;18.218;2023-11-21T12:57:56;1.20;;;1.10;;
13443;SDS011;6794;59.218;18.218;2023-11-21T13:00:29;1.57;;;1.23;;
13443;SDS011;6794;59.218;18.218;2023-11-21T13:02:57;1.63;;;1.27;;
13443;SDS011;6794;59.218;18.218;2023-11-21T13:05:27;1.43;;;1.33;;
13443;SDS011;6794;59.218;18.218;2023-11-21T13:07:56;1.40;;;1.30;;
13443;SDS011;6794;59.218;18.218;2023-11-21T13:10:25;2.43;;;1.77;;
13443;SDS011;6794;59.218;18.218;2023-11-21T13:12:55;2.00;;;1.60;;
13443;SDS011;6794;59.218;18.218;2023-11-21T13:15:23;2.10;;;1.50;;
13443;SDS011;6794;59.218;18.218;2023-11-21T13:17:49;2.60;;;1.40;;
13443;SDS011;6794;59.218;18.218;2023-11-21T13:20:16;1.30;;;1.20;;
13443;SDS011;6794;59.218;18.218;2023-11-21T13:22:52;1.50;;;1.40;;
13443;SDS011;6794;59.218;18.218;2023-11-21T13:25:26;1.40;;;1.30;;
13443;SDS011;6794;59.218;18.218;2023-11-21T13:27:55;1.80;;;1.20;;
13443;SDS011;6794;59.218;18.218;2023-11-21T13:30:22;1.97;;;1.50;;
13443;SDS011;6794;59.218;18.218;2023-11-21T13:32:55;1.53;;;1.33;;
13443;SDS011;6794;59.218;18.218;2023-11-21T13:35:22;1.47;;;1.10;;
13443;SDS011;6794;59.218;18.218;2023-11-21T13:37:56;1.50;;;1.17;;
13443;SDS011;6794;59.218;18.218;2023-11-21T13:40:25;1.20;;;0.87;;
13443;SDS011;6794;59.218;18.218;2023-11-21T13:42:55;1.27;;;1.10;;
13443;SDS011;6794;59.218;18.218;2023-11-21T13:45:24;1.50;;;1.10;;
13443;SDS011;6794;59.218;18.218;2023-11-21T13:47:51;1.40;;;1.30;;
13443;SDS011;6794;59.218;18.218;2023-11-21T13:50:23;1.90;;;1.20;;
13443;SDS011;6794;59.218;18.218;2023-11-21T13:52:51;1.70;;;1.35;;
13443;SDS011;6794;59.218;18.218;2023-11-21T13:55:18;1.20;;;1.10;;
13443;SDS011;6794;59.218;18.218;2023-11-21T13:57:44;1.50;;;1.20;;
13443;SDS011;6794;59.218;18.218;2023-11-21T14:00:14;1.13;;;1.00;;
13443;SDS011;6794;59.218;18.218;2023-11-21T14:03:00;1.33;;;1.20;;
13443;SDS011;6794;59.218;18.218;2023-11-21T14:05:29;2.43;;;1.37;;
13443;SDS011;6794;59.218;18.218;2023-11-21T14:07:56;1.23;;;1.13;;
13443;SDS011;6794;59.218;18.218;2023-11-21T14:10:30;1.47;;;1.37;;
13443;SDS011;6794;59.218;18.218;2023-11-21T14:13:08;1.37;;;1.20;;
13443;SDS011;6794;59.218;18.218;2023-11-21T14:15:40;2.47;;;1.13;;
13443;SDS011;6794;59.218;18.218;2023-11-21T14:18:08;1.47;;;1.30;;
13443;SDS011;6794;59.218;18.218;2023-11-21T14:20:42;1.97;;;1.33;;
13443;SDS011;6794;59.218;18.218;2023-11-21T14:23:09;3.05;;;1.83;;
13443;SDS011;6794;59.218;18.218;2023-11-21T14:25:36;2.50;;;1.90;;
13443;SDS011;6794;59.218;18.218;2023-11-21T14:28:05;5.37;;;1.60;;
13443;SDS011;6794;59.218;18.218;2023-11-21T14:30:32;2.13;;;1.50;;
13443;SDS011;6794;59.218;18.218;2023-11-21T14:33:00;1.43;;;1.33;;
13443;SDS011;6794;59.218;18.218;2023-11-21T14:35:27;2.27;;;1.60;;
13443;SDS011;6794;59.218;18.218;2023-11-21T14:37:55;1.53;;;1.40;;
13443;SDS011;6794;59.218;18.218;2023-11-21T14:40:23;1.60;;;1.43;;
13443;SDS011;6794;59.218;18.218;2023-11-21T14:42:50;1.70;;;1.43;;
13443;SDS011;6794;59.218;18.218;2023-11-21T14:45:18;3.30;;;1.50;;
13443;SDS011;6794;59.218;18.218;2023-11-21T14:47:48;2.40;;;1.70;;
13443;SDS011;6794;59.218;18.218;2023-11-21T14:50:27;2.17;;;1.97;;
13443;SDS011;6794;59.218;18.218;2023-11-21T14:53:02;3.13;;;2.45;;
13443;SDS011;6794;59.218;18.218;2023-11-21T14:55:31;2.53;;;2.07;;
13443;SDS011;6794;59.218;18.218;2023-11-21T14:58:04;2.20;;;1.90;;
13443;SDS011;6794;59.218;18.218;2023-11-21T15:00:30;2.37;;;2.07;;
13443;SDS011;6794;59.218;18.218;2023-11-21T15:02:59;3.63;;;2.13;;
13443;SDS011;6794;59.218;18.218;2023-11-21T15:05:26;2.20;;;2.00;;